Time;durP1;ratioP1;P1;durP2;ratioP2;P2;SDS_P1;SDS_P2;PMS_P1;PMS_P2;Temp;Humidity;BMP_temperature;BMP_pressure;BME280_temperature;BME280_humidity;BME280_pressure;Samples;Min_cycle;Max_cycle;Signal;HPM_P1;HPM_P2
2023/10/14 00:00:46;;;;;;;4.97;1.23;;;13.40;99.90;;;;;;5053281;28;20274;-70
2023/10/14 00:03:27;;;;;;;8.10;0.60;;;13.30;99.90;;;;;;5054989;28;20068;-70
2023/10/14 00:05:54;;;;;;;6.40;0.60;;;13.30;99.90;;;;;;5049828;28;20059;-69
2023/10/14 00:08:26;;;;;;;6.63;1.00;;;13.20;99.90;;;;;;5052798;28;20055;-72
2023/10/14 00:10:51;;;;;;;7.95;0.82;;;13.20;99.90;;;;;;5046457;28;20044;-70
2023/10/14 00:13:17;;;;;;;5.00;1.00;;;13.20;99.90;;;;;;5050913;28;20047;-70
2023/10/14 00:15:51;;;;;;;4.38;0.73;;;13.10;99.90;;;;;;5055886;28;20076;-70
2023/10/14 00:18:17;;;;;;;5.13;1.05;;;13.10;99.90;;;;;;5044270;28;20052;-70
2023/10/14 00:20:42;;;;;;;9.43;1.10;;;13.00;99.90;;;;;;5046655;28;20098;-70
2023/10/14 00:23:08;;;;;;;7.65;1.02;;;13.00;99.90;;;;;;5054678;28;20040;-70
2023/10/14 00:25:34;;;;;;;7.32;1.05;;;13.00;99.90;;;;;;5046681;28;20068;-70
2023/10/14 00:28:12;;;;;;;8.70;1.83;;;12.90;99.90;;;;;;5045189;28;20493;-70
2023/10/14 00:30:40;;;;;;;8.35;1.30;;;12.90;99.90;;;;;;5051192;28;20094;-70
2023/10/14 00:33:06;;;;;;;6.60;1.27;;;12.90;99.90;;;;;;5056412;28;20334;-70
2023/10/14 00:35:34;;;;;;;4.43;0.95;;;12.80;99.90;;;;;;5044483;28;20095;-70
2023/10/14 00:38:08;;;;;;;10.27;1.23;;;12.80;99.90;;;;;;5048376;28;20492;-70
2023/10/14 00:40:40;;;;;;;8.07;1.20;;;12.70;99.90;;;;;;5057977;28;20473;-70
2023/10/14 00:43:08;;;;;;;5.28;1.05;;;12.70;99.90;;;;;;5051633;28;20052;-70
2023/10/14 00:45:43;;;;;;;8.02;1.50;;;12.60;99.90;;;;;;5051773;28;20048;-70
2023/10/14 00:48:12;;;;;;;7.47;1.17;;;12.60;99.90;;;;;;5051476;28;20336;-70
2023/10/14 00:50:41;;;;;;;7.15;1.80;;;12.50;99.90;;;;;;5052737;28;20047;-70
2023/10/14 00:53:08;;;;;;;10.60;2.28;;;12.40;99.90;;;;;;5048016;28;20048;-70
2023/10/14 00:55:54;;;;;;;7.88;1.27;;;12.40;99.90;;;;;;5049099;28;20158;-70
2023/10/14 00:58:23;;;;;;;5.32;0.85;;;12.30;99.90;;;;;;5038164;28;20534;-70
2023/10/14 01:00:59;;;;;;;5.03;1.27;;;12.30;99.90;;;;;;5058711;28;20048;-70
2023/10/14 01:03:31;;;;;;;9.82;1.30;;;12.20;99.90;;;;;;5051363;28;20044;-70
2023/10/14 01:06:06;;;;;;;6.75;1.20;;;12.20;99.90;;;;;;5050423;28;20053;-70
2023/10/14 01:08:38;;;;;;;13.85;1.33;;;12.10;99.90;;;;;;5049798;28;20557;-70
2023/10/14 01:11:03;;;;;;;7.45;1.02;;;12.10;99.90;;;;;;5035393;28;20049;-70
2023/10/14 01:13:29;;;;;;;5.63;0.90;;;12.10;99.90;;;;;;5033203;28;20529;-70
2023/10/14 01:16:03;;;;;;;11.13;1.53;;;12.00;99.90;;;;;;5054243;28;20277;-70
2023/10/14 01:18:31;;;;;;;8.30;1.05;;;12.00;99.90;;;;;;5052459;28;20048;-70
2023/10/14 01:20:57;;;;;;;9.88;1.45;;;12.00;99.90;;;;;;5028758;28;20859;-70
2023/10/14 01:23:26;;;;;;;5.93;1.27;;;12.00;99.90;;;;;;5059049;28;20580;-70
2023/10/14 01:25:52;;;;;;;8.52;1.75;;;12.00;99.90;;;;;;5039032;28;20064;-70
2023/10/14 01:28:21;;;;;;;10.60;1.70;;;12.00;99.90;;;;;;5052899;28;20037;-69
2023/10/14 01:31:33;;;;;;;9.30;1.60;;;12.00;99.90;;;;;;5052509;28;20053;-70
2023/10/14 01:34:05;;;;;;;4.40;1.15;;;12.00;99.90;;;;;;5047888;28;20504;-72
2023/10/14 01:36:40;;;;;;;4.15;1.67;;;12.00;99.90;;;;;;5048158;28;20040;-72
2023/10/14 01:39:11;;;;;;;11.80;1.85;;;12.00;99.90;;;;;;5045775;28;20044;-72
2023/10/14 01:41:37;;;;;;;11.38;1.60;;;12.10;99.90;;;;;;5056269;28;20055;-72
2023/10/14 01:44:05;;;;;;;9.13;1.50;;;12.00;99.90;;;;;;5051687;28;20044;-72
2023/10/14 01:46:35;;;;;;;6.05;1.38;;;12.00;99.90;;;;;;5051942;28;20131;-72
2023/10/14 01:49:10;;;;;;;5.53;1.30;;;11.90;99.90;;;;;;5045121;28;20045;-72
2023/10/14 01:51:36;;;;;;;9.63;1.10;;;11.90;99.90;;;;;;5034832;28;20041;-72
2023/10/14 01:54:03;;;;;;;6.35;1.60;;;11.90;99.90;;;;;;5044908;28;20044;-72
2023/10/14 01:56:30;;;;;;;;;;;11.80;99.90;;;;;;5049406;28;20041;-72
2023/10/14 01:58:59;;;;;;;3.60;0.80;;;11.80;99.90;;;;;;5052689;28;19926;-72
2023/10/14 02:01:27;;;;;;;7.28;1.48;;;11.80;99.90;;;;;;5049092;28;20500;-72
2023/10/14 02:03:56;;;;;;;6.95;1.42;;;11.80;99.90;;;;;;5047012;28;20048;-72
2023/10/14 02:06:32;;;;;;;10.70;1.38;;;11.80;99.90;;;;;;5031942;28;20055;-72
2023/10/14 02:08:59;;;;;;;8.95;1.58;;;11.80;99.90;;;;;;5045588;28;20057;-73
2023/10/14 02:11:35;;;;;;;4.82;1.42;;;11.80;99.90;;;;;;5051668;28;20059;-72
2023/10/14 02:14:08;;;;;;;6.88;1.55;;;11.80;99.90;;;;;;5047320;28;20048;-72
2023/10/14 02:16:41;;;;;;;11.20;1.33;;;11.80;99.90;;;;;;5056642;28;20233;-72
2023/10/14 02:21:57;;;;;;;9.27;1.08;;;11.90;99.90;;;;;;5049612;28;20055;-72
2023/10/14 02:24:26;;;;;;;5.03;1.15;;;11.90;99.90;;;;;;5045772;28;20043;-72
2023/10/14 02:26:54;;;;;;;13.55;1.88;;;11.90;99.90;;;;;;5038941;28;20497;-72
2023/10/14 02:29:24;;;;;;;12.73;1.58;;;11.90;99.90;;;;;;5049662;28;20045;-72
2023/10/14 02:31:50;;;;;;;3.42;1.17;;;11.80;99.90;;;;;;5045411;28;20051;-72
2023/10/14 02:34:15;;;;;;;6.65;1.08;;;11.90;99.90;;;;;;5044447;28;20036;-72
2023/10/14 02:36:42;;;;;;;6.57;1.10;;;11.80;99.90;;;;;;5038753;28;20140;-72
2023/10/14 02:39:17;;;;;;;13.35;1.80;;;11.80;99.90;;;;;;5050773;28;20793;-72
2023/10/14 02:42:20;;;;;;;10.88;1.60;;;11.80;99.90;;;;;;5052754;28;20535;-72
2023/10/14 02:44:44;;;;;;;5.68;1.58;;;11.80;99.90;;;;;;5047048;28;20404;-72
2023/10/14 02:47:11;;;;;;;8.65;1.25;;;11.80;99.90;;;;;;5055245;28;20055;-69
2023/10/14 02:49:39;;;;;;;9.75;1.65;;;11.80;99.90;;;;;;5054581;28;20281;-69
2023/10/14 02:52:10;;;;;;;10.50;1.67;;;11.80;99.90;;;;;;5056198;28;20056;-69
2023/10/14 02:54:54;;;;;;;9.43;1.83;;;11.80;99.90;;;;;;5054654;28;20033;-72
2023/10/14 02:57:25;;;;;;;6.38;1.35;;;11.70;99.90;;;;;;5056458;28;20033;-72
2023/10/14 03:00:00;;;;;;;4.45;1.20;;;11.70;99.90;;;;;;5039694;28;20057;-72
2023/10/14 03:02:27;;;;;;;7.13;1.73;;;11.70;99.90;;;;;;5036658;28;20445;-72
2023/10/14 03:07:58;;;;;;;9.48;1.50;;;11.60;99.90;;;;;;5058930;28;19916;-70
2023/10/14 03:12:49;;;;;;;9.20;1.27;;;11.60;99.90;;;;;;5051449;28;20460;-70
2023/10/14 03:15:20;;;;;;;9.13;2.15;;;11.50;99.90;;;;;;5054741;28;20049;-69
2023/10/14 03:18:01;;;;;;;7.22;1.20;;;11.50;99.90;;;;;;5066441;28;20361;-69
2023/10/14 03:20:34;;;;;;;8.38;1.30;;;11.50;99.90;;;;;;5040050;28;20048;-68
2023/10/14 03:23:19;;;;;;;5.32;1.33;;;11.50;99.90;;;;;;5057762;28;20135;-69
2023/10/14 03:25:50;;;;;;;3.85;1.10;;;11.50;99.90;;;;;;5052822;28;20476;-69
2023/10/14 03:28:20;;;;;;;6.63;1.15;;;11.50;99.90;;;;;;5058987;28;20049;-69
2023/10/14 03:30:48;;;;;;;5.90;1.20;;;11.50;99.90;;;;;;5060013;28;20432;-70
2023/10/14 03:33:20;;;;;;;5.72;1.88;;;11.50;99.90;;;;;;5052230;28;20045;-72
2023/10/14 03:35:57;;;;;;;6.93;1.42;;;11.50;99.90;;;;;;5057201;28;20037;-72
2023/10/14 03:41:18;;;;;;;14.70;1.80;;;11.40;99.90;;;;;;5054402;28;20041;-72
2023/10/14 03:46:29;;;;;;;4.90;1.17;;;11.50;99.90;;;;;;5075883;28;20148;-71
2023/10/14 03:48:55;;;;;;;7.55;0.95;;;11.40;99.90;;;;;;5048216;28;20060;-71
2023/10/14 03:51:27;;;;;;;6.13;2.08;;;11.50;99.90;;;;;;5062984;28;20040;-71
2023/10/14 03:54:08;;;;;;;5.60;1.63;;;11.50;99.90;;;;;;5056395;28;20080;-71
2023/10/14 03:56:35;;;;;;;12.07;1.60;;;11.40;99.90;;;;;;5059343;28;20535;-71
2023/10/14 03:59:02;;;;;;;5.82;0.95;;;11.50;99.90;;;;;;5052615;28;20190;-71
2023/10/14 04:01:43;;;;;;;9.23;1.55;;;11.50;99.90;;;;;;5056842;28;20052;-71
2023/10/14 04:04:18;;;;;;;5.45;1.10;;;11.40;99.90;;;;;;5048664;28;20041;-71
2023/10/14 04:12:30;;;;;;;10.80;1.75;;;11.40;99.90;;;;;;5055596;28;20123;-71
2023/10/14 04:14:57;;;;;;;9.65;1.88;;;11.40;99.90;;;;;;5056606;28;20450;-71
2023/10/14 04:17:30;;;;;;;9.27;2.25;;;11.40;99.90;;;;;;5048607;28;20041;-71
2023/10/14 04:22:39;;;;;;;7.68;0.88;;;11.30;99.90;;;;;;5060335;28;20051;-71
2023/10/14 04:30:32;;;;;;;5.57;1.63;;;11.40;99.90;;;;;;5056808;28;20289;-71
2023/10/14 04:35:36;;;;;;;8.55;1.30;;;11.40;99.90;;;;;;5053107;28;20052;-71
2023/10/14 04:38:17;;;;;;;9.90;1.40;;;11.40;99.90;;;;;;5047198;28;20053;-71
2023/10/14 04:40:53;;;;;;;10.60;1.75;;;11.30;99.90;;;;;;5056051;28;20048;-71
2023/10/14 04:46:12;;;;;;;7.47;1.50;;;11.30;99.90;;;;;;5057232;28;20416;-71
2023/10/14 04:48:39;;;;;;;11.52;1.17;;;11.30;99.90;;;;;;5033792;28;20045;-71
2023/10/14 04:51:19;;;;;;;7.20;1.25;;;11.30;99.90;;;;;;5060826;28;20599;-74
2023/10/14 04:53:52;;;;;;;12.98;1.05;;;11.20;99.90;;;;;;5053845;28;20052;-71
2023/10/14 04:56:29;;;;;;;8.20;1.20;;;11.30;99.90;;;;;;5038653;28;20044;-71
2023/10/14 04:58:56;;;;;;;6.10;1.05;;;11.30;99.90;;;;;;5059004;28;20049;-71
2023/10/14 05:01:24;;;;;;;5.50;1.05;;;11.30;99.90;;;;;;5048457;28;20037;-71
2023/10/14 05:03:55;;;;;;;7.32;1.52;;;11.20;99.90;;;;;;5057034;28;20603;-71
2023/10/14 05:06:21;;;;;;;7.75;1.92;;;11.20;99.90;;;;;;5059416;28;20087;-71
2023/10/14 05:08:55;;;;;;;6.53;1.33;;;11.20;99.90;;;;;;5047770;28;20053;-71
2023/10/14 05:11:25;;;;;;;8.00;1.13;;;11.20;99.90;;;;;;5033392;28;20124;-71
2023/10/14 05:14:14;;;;;;;8.10;1.15;;;11.20;99.90;;;;;;5055694;28;20063;-72
2023/10/14 05:16:56;;;;;;;11.18;2.28;;;11.20;99.90;;;;;;5043969;28;20103;-70
2023/10/14 05:19:47;;;;;;;9.43;1.45;;;11.20;99.90;;;;;;5051421;28;20323;-70
2023/10/14 05:25:15;;;;;;;10.93;1.40;;;11.20;99.90;;;;;;5040856;28;20611;-70
2023/10/14 05:27:55;;;;;;;7.70;0.98;;;11.20;99.90;;;;;;5050501;28;20049;-70
2023/10/14 05:30:24;;;;;;;5.90;2.05;;;11.20;99.90;;;;;;5049017;28;20037;-70
2023/10/14 05:32:53;;;;;;;6.63;0.90;;;11.20;99.90;;;;;;5057960;28;20094;-70
2023/10/14 05:35:22;;;;;;;13.50;1.98;;;11.30;99.90;;;;;;5054764;28;20064;-70
2023/10/14 05:37:48;;;;;;;9.68;1.23;;;11.30;99.90;;;;;;5049190;28;20055;-70
2023/10/14 05:40:17;;;;;;;8.70;1.20;;;11.30;99.90;;;;;;5042473;28;20040;-70
2023/10/14 05:42:43;;;;;;;12.15;1.48;;;11.30;99.90;;;;;;5053193;28;20094;-70
2023/10/14 05:45:12;;;;;;;10.02;1.23;;;11.20;99.90;;;;;;5044939;28;20082;-70
2023/10/14 05:47:42;;;;;;;5.53;2.00;;;11.30;99.90;;;;;;5056279;28;20051;-70
2023/10/14 05:50:10;;;;;;;9.65;2.10;;;11.30;99.90;;;;;;5056729;28;20041;-70
2023/10/14 05:52:36;;;;;;;8.02;1.98;;;11.30;99.90;;;;;;5056513;28;20444;-70
2023/10/14 05:55:05;;;;;;;13.20;2.20;;;11.30;99.90;;;;;;5051696;28;20067;-70
2023/10/14 05:57:39;;;;;;;7.65;1.60;;;11.30;99.90;;;;;;5056544;28;20132;-70
2023/10/14 06:00:21;;;;;;;8.02;1.80;;;11.20;99.90;;;;;;5048209;28;20668;-70
2023/10/14 06:02:53;;;;;;;12.85;2.00;;;11.20;99.90;;;;;;5051651;28;20408;-70
2023/10/14 06:05:31;;;;;;;21.02;1.90;;;11.20;99.90;;;;;;5050542;28;20094;-70
2023/10/14 06:08:00;;;;;;;9.52;2.50;;;11.20;99.90;;;;;;5052929;28;20056;-70
2023/10/14 06:10:29;;;;;;;11.90;1.63;;;11.20;99.90;;;;;;5051575;28;20040;-70
2023/10/14 06:12:58;;;;;;;10.13;2.55;;;11.10;99.90;;;;;;5070565;28;20052;-70
2023/10/14 06:15:25;;;;;;;9.50;2.30;;;11.10;99.90;;;;;;5048970;28;20048;-70
2023/10/14 06:17:54;;;;;;;8.73;1.90;;;11.00;99.90;;;;;;5052534;28;20103;-70
2023/10/14 06:20:21;;;;;;;12.73;1.83;;;11.00;99.90;;;;;;5057463;28;20560;-70
2023/10/14 06:22:47;;;;;;;5.80;1.95;;;11.00;99.90;;;;;;5053956;28;20048;-70
2023/10/14 06:25:16;;;;;;;8.77;1.50;;;11.00;99.90;;;;;;5054971;28;20460;-70
2023/10/14 06:27:46;;;;;;;4.85;1.08;;;11.10;99.90;;;;;;5051726;28;20482;-70
2023/10/14 06:30:19;;;;;;;10.27;1.60;;;11.10;99.90;;;;;;5052130;28;20049;-70
2023/10/14 06:32:47;;;;;;;16.80;1.73;;;11.20;99.90;;;;;;5045366;28;20055;-70
2023/10/14 06:35:17;;;;;;;9.98;1.38;;;11.20;99.90;;;;;;5055842;28;20378;-70
2023/10/14 06:37:46;;;;;;;8.35;1.10;;;11.30;99.90;;;;;;5047680;28;20080;-70
2023/10/14 06:40:19;;;;;;;15.48;1.45;;;11.30;99.90;;;;;;5045285;28;20131;-70
2023/10/14 06:42:50;;;;;;;5.65;1.02;;;11.30;99.90;;;;;;5039066;28;20391;-70
2023/10/14 06:45:31;;;;;;;12.50;1.40;;;11.30;99.90;;;;;;5051728;28;20044;-70
2023/10/14 06:47:57;;;;;;;7.60;1.33;;;11.30;99.90;;;;;;5070784;28;20113;-70
2023/10/14 06:50:26;;;;;;;;;;;11.40;99.90;;;;;;5042436;28;20052;-69
2023/10/14 06:52:58;;;;;;;8.57;1.73;;;11.30;99.90;;;;;;5055865;28;19998;-70
2023/10/14 06:55:39;;;;;;;5.97;1.85;;;11.30;99.90;;;;;;5051687;28;20068;-70
2023/10/14 06:58:11;;;;;;;11.93;2.33;;;11.40;99.90;;;;;;5051605;28;20052;-70
2023/10/14 07:00:39;;;;;;;11.52;2.30;;;11.40;99.90;;;;;;5049203;28;20409;-70
2023/10/14 07:03:12;;;;;;;11.30;1.75;;;11.40;99.90;;;;;;5051595;28;20089;-70
2023/10/14 07:05:48;;;;;;;13.30;2.40;;;11.40;99.90;;;;;;5029799;28;20524;-70
2023/10/14 07:08:21;;;;;;;14.52;2.20;;;11.50;99.90;;;;;;5050057;28;20036;-70
2023/10/14 07:10:50;;;;;;;6.22;1.65;;;11.40;99.90;;;;;;5055303;28;21937;-71
2023/10/14 07:13:17;;;;;;;14.52;2.25;;;11.50;99.90;;;;;;5057737;28;20097;-70
2023/10/14 07:15:44;;;;;;;9.73;1.80;;;11.50;99.90;;;;;;5049022;28;20040;-70
2023/10/14 07:18:13;;;;;;;12.68;1.80;;;11.60;99.90;;;;;;5035872;28;20128;-70
2023/10/14 07:20:42;;;;;;;11.25;1.75;;;11.60;99.90;;;;;;5050831;28;20057;-70
2023/10/14 07:23:08;;;;;;;8.93;1.92;;;11.70;99.90;;;;;;5053121;28;20048;-70
2023/10/14 07:25:38;;;;;;;9.20;2.00;;;11.70;99.90;;;;;;5052289;28;20040;-70
2023/10/14 07:28:07;;;;;;;8.05;1.38;;;11.80;99.90;;;;;;5036948;28;20708;-70
2023/10/14 07:30:34;;;;;;;7.43;1.40;;;11.70;99.90;;;;;;5050397;28;20090;-70
2023/10/14 07:33:03;;;;;;;9.55;1.33;;;11.80;99.90;;;;;;5053960;28;20488;-70
2023/10/14 07:35:31;;;;;;;9.93;1.65;;;11.80;99.90;;;;;;5046910;28;20080;-70
2023/10/14 07:37:58;;;;;;;8.80;1.70;;;11.80;99.90;;;;;;5040165;28;20604;-72
2023/10/14 07:40:27;;;;;;;8.80;1.77;;;11.90;99.90;;;;;;5055306;28;20037;-71
2023/10/14 07:42:59;;;;;;;10.85;1.80;;;11.90;99.90;;;;;;5055632;28;20093;-79
2023/10/14 07:45:33;;;;;;;13.35;2.10;;;11.90;99.90;;;;;;5061839;28;20638;-71
2023/10/14 07:48:00;;;;;;;7.70;1.40;;;12.00;99.90;;;;;;5055888;28;20051;-71
2023/10/14 07:50:33;;;;;;;11.25;1.63;;;12.00;99.90;;;;;;5058072;28;20043;-77
2023/10/14 07:53:07;;;;;;;8.45;1.40;;;12.10;99.90;;;;;;5048456;28;20048;-72
2023/10/14 07:55:56;;;;;;;5.78;1.20;;;12.20;99.90;;;;;;5051957;28;20044;-73
2023/10/14 07:58:27;;;;;;;6.97;1.30;;;12.20;99.90;;;;;;5063682;28;20044;-79
2023/10/14 08:00:54;;;;;;;8.63;1.23;;;12.30;99.90;;;;;;5057141;28;20123;-75
2023/10/14 08:03:22;;;;;;;7.88;1.40;;;12.30;99.90;;;;;;5036228;28;20232;-74
2023/10/14 08:05:52;;;;;;;10.60;1.75;;;12.40;99.90;;;;;;5051819;28;20534;-74
2023/10/14 08:08:21;;;;;;;11.57;1.33;;;12.40;99.90;;;;;;5040741;28;20493;-76
2023/10/14 08:10:49;;;;;;;5.70;0.80;;;12.40;99.90;;;;;;5048592;28;20044;-74
2023/10/14 08:13:22;;;;;;;13.20;1.60;;;12.50;99.90;;;;;;5044970;28;20105;-73
2023/10/14 08:15:52;;;;;;;11.23;1.30;;;12.60;99.90;;;;;;5044000;28;20064;-74
2023/10/14 08:18:26;;;;;;;6.60;1.25;;;12.70;99.90;;;;;;5041878;28;20044;-73
2023/10/14 08:20:55;;;;;;;4.47;0.75;;;12.70;99.90;;;;;;5019748;28;20093;-78
2023/10/14 08:23:25;;;;;;;8.57;1.10;;;12.80;99.90;;;;;;5053882;28;20043;-79
2023/10/14 08:25:54;;;;;;;9.52;1.15;;;12.80;99.90;;;;;;5029787;28;20049;-73
2023/10/14 08:28:24;;;;;;;7.63;1.15;;;12.90;99.90;;;;;;5056661;28;20096;-73
2023/10/14 08:30:55;;;;;;;7.55;1.45;;;13.00;99.90;;;;;;5056772;28;20078;-78
2023/10/14 08:33:23;;;;;;;5.15;1.13;;;13.00;99.90;;;;;;5053185;28;20509;-80
2023/10/14 08:35:50;;;;;;;7.90;1.92;;;13.00;99.90;;;;;;5052761;28;20051;-80
2023/10/14 08:38:19;;;;;;;5.50;0.98;;;13.00;99.90;;;;;;5053129;28;20531;-73
2023/10/14 08:40:50;;;;;;;7.88;1.10;;;12.90;99.90;;;;;;5046332;28;20109;-72
2023/10/14 08:43:22;;;;;;;9.32;0.93;;;12.90;99.90;;;;;;5061425;28;20123;-72
2023/10/14 08:45:48;;;;;;;5.82;0.93;;;12.90;99.90;;;;;;5030771;28;20044;-71
2023/10/14 08:48:19;;;;;;;10.00;1.35;;;13.00;99.90;;;;;;5054494;28;20037;-71
2023/10/14 08:50:47;;;;;;;7.47;1.17;;;12.90;99.90;;;;;;5051993;28;20048;-71
2023/10/14 08:53:13;;;;;;;4.80;1.00;;;13.00;99.90;;;;;;4985614;28;20045;-72
2023/10/14 08:55:40;;;;;;;6.72;1.08;;;13.00;99.90;;;;;;4969192;28;20611;-71
2023/10/14 08:58:13;;;;;;;5.07;1.20;;;13.10;99.90;;;;;;4995972;28;20042;-71
2023/10/14 09:00:43;;;;;;;6.38;1.20;;;13.10;99.90;;;;;;4978055;28;20054;-70
2023/10/14 09:03:10;;;;;;;1.25;0.60;;;13.20;99.90;;;;;;4997963;28;20046;-70
2023/10/14 09:05:44;;;;;;;7.45;1.08;;;13.10;99.90;;;;;;5003597;28;20030;-71
2023/10/14 09:08:19;;;;;;;5.20;1.33;;;13.20;99.90;;;;;;5001734;28;20152;-70
2023/10/14 09:10:45;;;;;;;5.10;1.10;;;13.30;99.90;;;;;;4990511;28;20486;-71
2023/10/14 09:13:13;;;;;;;6.43;1.10;;;13.40;99.90;;;;;;5000917;28;20587;-70
2023/10/14 09:15:43;;;;;;;6.78;1.25;;;13.40;99.90;;;;;;4992778;28;20066;-71
2023/10/14 09:18:21;;;;;;;4.85;1.35;;;13.50;99.90;;;;;;4992777;28;20074;-72
2023/10/14 09:20:54;;;;;;;5.90;1.95;;;13.50;99.90;;;;;;4989023;28;20038;-71
2023/10/14 09:23:30;;;;;;;7.80;1.25;;;13.50;99.90;;;;;;5002030;28;20050;-71
2023/10/14 09:25:57;;;;;;;3.53;1.00;;;13.40;99.90;;;;;;4999189;28;20041;-71
2023/10/14 09:28:44;;;;;;;10.07;1.38;;;13.40;99.90;;;;;;4996918;28;20060;-71
2023/10/14 09:31:11;;;;;;;7.88;0.98;;;13.20;99.90;;;;;;4992309;28;22367;-71
2023/10/14 09:33:43;;;;;;;6.18;1.17;;;13.10;99.90;;;;;;4996779;28;20046;-71
2023/10/14 09:36:18;;;;;;;12.40;1.70;;;13.20;99.90;;;;;;4984968;28;20054;-71
2023/10/14 09:38:54;;;;;;;6.68;1.60;;;13.40;99.90;;;;;;4982905;28;20574;-71
2023/10/14 09:41:21;;;;;;;12.17;1.33;;;13.50;99.90;;;;;;4997342;28;20076;-71
2023/10/14 09:43:47;;;;;;;;;;;13.70;99.90;;;;;;4995296;28;20345;-71
2023/10/14 09:46:20;;;;;;;6.15;0.90;;;13.80;99.90;;;;;;4993352;28;19918;-70
2023/10/14 09:48:46;;;;;;;4.80;1.38;;;13.90;99.90;;;;;;4995093;28;20073;-70
2023/10/14 09:51:15;;;;;;;4.78;1.13;;;13.80;99.90;;;;;;4996371;28;20059;-71
2023/10/14 09:53:44;;;;;;;3.58;0.40;;;13.60;99.90;;;;;;4988893;28;20110;-70
2023/10/14 09:56:12;;;;;;;4.97;1.15;;;13.30;99.90;;;;;;4982036;28;20042;-74
2023/10/14 09:58:43;;;;;;;4.22;0.70;;;13.10;99.90;;;;;;4988347;28;22768;-71
2023/10/14 10:01:16;;;;;;;1.08;0.32;;;13.00;99.90;;;;;;4997172;28;20144;-70
2023/10/14 10:03:48;;;;;;;2.40;0.30;;;13.00;99.90;;;;;;4992916;28;20042;-71
2023/10/14 10:06:35;;;;;;;2.88;0.40;;;13.10;99.90;;;;;;4998203;28;20149;-71
2023/10/14 10:09:26;;;;;;;3.97;0.47;;;13.10;99.90;;;;;;4978233;28;20046;-71
2023/10/14 10:11:55;;;;;;;5.72;0.63;;;13.10;99.90;;;;;;4990111;28;20417;-71
2023/10/14 10:14:22;;;;;;;4.07;1.00;;;13.00;99.90;;;;;;4993050;28;20121;-71
2023/10/14 10:16:52;;;;;;;5.45;1.05;;;13.00;99.90;;;;;;4978006;28;20776;-71
2023/10/14 10:19:18;;;;;;;9.20;0.88;;;12.90;99.90;;;;;;4983726;28;20053;-71
2023/10/14 10:22:17;;;;;;;7.00;0.73;;;12.90;99.90;;;;;;4990059;28;20046;-71
2023/10/14 10:24:46;;;;;;;10.70;1.00;;;12.90;99.90;;;;;;4977053;28;20354;-72
2023/10/14 10:27:14;;;;;;;4.50;0.77;;;13.10;99.90;;;;;;5000962;28;20037;-72
2023/10/14 10:29:47;;;;;;;9.18;0.98;;;13.20;99.90;;;;;;5001107;28;20077;-72
2023/10/14 10:32:19;;;;;;;9.65;1.20;;;13.30;99.90;;;;;;4991275;28;20518;-72
2023/10/14 10:35:13;;;;;;;11.45;1.63;;;13.50;99.90;;;;;;4998760;28;20044;-72
2023/10/14 10:37:53;;;;;;;5.22;1.33;;;13.60;99.90;;;;;;4998544;28;20074;-75
2023/10/14 10:40:27;;;;;;;8.85;1.10;;;13.80;99.90;;;;;;5000296;28;20113;-72
2023/10/14 10:42:56;;;;;;;;;;;13.90;99.90;;;;;;4994092;28;20487;-72
2023/10/14 10:45:32;;;;;;;5.85;1.23;;;14.00;99.90;;;;;;4985184;28;19924;-72
2023/10/14 10:48:07;;;;;;;12.43;1.70;;;14.10;99.90;;;;;;4977494;28;20049;-72
2023/10/14 10:50:38;;;;;;;6.50;1.05;;;14.20;99.90;;;;;;5000559;28;20123;-72
2023/10/14 10:53:10;;;;;;;15.75;1.48;;;14.20;99.90;;;;;;4995576;28;20052;-72
2023/10/14 10:55:39;;;;;;;5.20;1.13;;;14.30;99.90;;;;;;4995777;28;20548;-72
2023/10/14 10:58:08;;;;;;;9.05;1.40;;;14.30;99.90;;;;;;5001254;28;20482;-72
2023/10/14 11:00:38;;;;;;;6.28;1.20;;;14.40;99.90;;;;;;4967917;28;20049;-72
2023/10/14 11:03:07;;;;;;;5.28;0.95;;;14.50;99.90;;;;;;4976568;28;20046;-72
2023/10/14 11:05:36;;;;;;;6.15;1.17;;;14.60;99.90;;;;;;4991863;28;20046;-72
2023/10/14 11:08:05;;;;;;;5.63;0.93;;;14.70;99.90;;;;;;4996143;28;20139;-72
2023/10/14 11:10:33;;;;;;;6.57;1.50;;;14.60;99.90;;;;;;4990105;28;20031;-72
2023/10/14 11:13:12;;;;;;;8.38;1.05;;;14.50;99.90;;;;;;4999391;28;20034;-72
2023/10/14 11:15:39;;;;;;;8.88;1.20;;;14.30;99.90;;;;;;4973699;28;20089;-72
2023/10/14 11:18:06;;;;;;;5.00;0.85;;;14.10;99.90;;;;;;4996188;28;20084;-72
2023/10/14 11:20:43;;;;;;;9.07;1.30;;;13.90;99.90;;;;;;4986121;28;20045;-72
2023/10/14 11:23:09;;;;;;;3.72;0.90;;;13.70;99.90;;;;;;4999607;28;20483;-72
2023/10/14 11:25:41;;;;;;;5.40;0.70;;;13.50;99.90;;;;;;5000273;28;20045;-72
2023/10/14 11:28:11;;;;;;;9.25;1.38;;;13.30;99.90;;;;;;5000833;28;20042;-71
2023/10/14 11:31:00;;;;;;;5.85;0.80;;;13.20;99.90;;;;;;4995581;28;20071;-72
2023/10/14 11:33:33;;;;;;;5.32;1.50;;;13.20;99.90;;;;;;4980968;28;20038;-72
2023/10/14 11:35:58;;;;;;;8.93;1.30;;;13.20;99.90;;;;;;4992903;28;20052;-72
2023/10/14 11:38:29;;;;;;;7.78;1.20;;;13.20;99.90;;;;;;4987849;28;20058;-71
2023/10/14 11:40:55;;;;;;;9.75;1.23;;;13.00;99.90;;;;;;4999825;28;20058;-72
2023/10/14 11:43:23;;;;;;;7.45;1.25;;;12.90;99.90;;;;;;5007711;28;20041;-72
2023/10/14 11:45:51;;;;;;;4.47;1.00;;;12.90;99.90;;;;;;4999779;28;20069;-72
2023/10/14 11:48:23;;;;;;;9.75;2.00;;;12.80;99.90;;;;;;5003290;28;20041;-72
2023/10/14 11:50:53;;;;;;;11.50;1.90;;;12.80;99.90;;;;;;4994674;28;21341;-72
2023/10/14 11:53:29;;;;;;;9.90;1.40;;;12.90;99.90;;;;;;4997137;28;20041;-72
2023/10/14 11:56:03;;;;;;;11.00;2.57;;;12.90;99.90;;;;;;4997314;28;20519;-72
2023/10/14 11:58:35;;;;;;;10.55;2.17;;;12.90;99.90;;;;;;4998800;28;20313;-72
2023/10/14 12:01:03;;;;;;;8.52;1.17;;;12.90;99.90;;;;;;4974852;28;20185;-72
2023/10/14 12:03:32;;;;;;;10.05;1.25;;;13.10;99.90;;;;;;5000632;28;20092;-72
2023/10/14 12:06:01;;;;;;;8.57;1.65;;;13.20;99.90;;;;;;4992544;28;20552;-72
2023/10/14 12:08:32;;;;;;;8.10;1.45;;;13.50;99.90;;;;;;5000154;28;20049;-72
2023/10/14 12:10:59;;;;;;;8.18;2.28;;;13.60;99.90;;;;;;4997386;28;20096;-72
2023/10/14 12:13:27;;;;;;;10.50;1.38;;;13.70;99.90;;;;;;5001024;28;20048;-72
2023/10/14 12:15:56;;;;;;;7.63;1.73;;;13.70;99.90;;;;;;5001200;28;20053;-72
2023/10/14 12:18:21;;;;;;;9.77;1.20;;;13.70;99.90;;;;;;5000991;28;20053;-72
2023/10/14 12:20:48;;;;;;;11.70;2.17;;;13.60;99.90;;;;;;4994875;28;20045;-72
2023/10/14 12:23:19;;;;;;;9.80;1.40;;;13.50;99.90;;;;;;4996397;28;20050;-72
2023/10/14 12:25:49;;;;;;;8.45;1.77;;;13.50;99.90;;;;;;5000992;28;20117;-72
2023/10/14 12:28:25;;;;;;;6.97;1.40;;;13.70;99.90;;;;;;4999236;28;20120;-72
2023/10/14 12:30:58;;;;;;;5.83;1.40;;;13.80;99.90;;;;;;5002245;28;20037;-72
2023/10/14 12:33:29;;;;;;;8.10;1.88;;;13.90;99.90;;;;;;4997287;28;20326;-72
2023/10/14 12:36:08;;;;;;;6.70;1.70;;;13.90;99.90;;;;;;4999414;28;20040;-72
2023/10/14 12:38:38;;;;;;;10.18;1.80;;;13.90;99.90;;;;;;4996298;28;26025;-71
2023/10/14 12:41:05;;;;;;;5.35;1.10;;;13.90;99.90;;;;;;5004633;28;20584;-71
2023/10/14 12:43:37;;;;;;;8.65;1.50;;;13.90;99.90;;;;;;4995208;28;20030;-71
2023/10/14 12:46:12;;;;;;;8.93;1.55;;;13.90;99.90;;;;;;4981714;28;20049;-72
2023/10/14 12:48:43;;;;;;;8.05;2.10;;;14.00;99.90;;;;;;5001185;28;20050;-71
2023/10/14 12:51:17;;;;;;;10.93;1.40;;;14.10;99.90;;;;;;4994371;28;20089;-72
2023/10/14 12:53:48;;;;;;;7.57;1.13;;;14.30;99.90;;;;;;4982376;28;20399;-72
2023/10/14 12:56:20;;;;;;;6.00;1.38;;;14.40;99.90;;;;;;4999328;28;20129;-72
2023/10/14 12:58:48;;;;;;;7.53;2.08;;;14.50;99.90;;;;;;4997474;28;20379;-72
2023/10/14 13:01:17;;;;;;;9.55;1.52;;;14.60;99.90;;;;;;4991107;28;20057;-72
2023/10/14 13:03:53;;;;;;;7.53;0.80;;;14.70;99.90;;;;;;4997010;28;20049;-72
2023/10/14 13:06:23;;;;;;;3.57;0.97;;;14.70;99.90;;;;;;4996392;28;20041;-72
2023/10/14 13:08:53;;;;;;;7.45;1.20;;;14.60;99.90;;;;;;4983508;28;20408;-72
2023/10/14 13:11:22;;;;;;;7.43;1.48;;;14.60;99.90;;;;;;4995998;28;20184;-72
2023/10/14 13:13:50;;;;;;;8.85;1.17;;;14.70;99.90;;;;;;4998817;28;20038;-72
2023/10/14 13:16:23;;;;;;;13.27;1.77;;;14.70;99.90;;;;;;5005492;28;20124;-71
2023/10/14 13:18:56;;;;;;;7.50;1.73;;;14.70;99.90;;;;;;4998945;28;21326;-72
2023/10/14 13:21:31;;;;;;;16.80;1.48;;;14.70;99.90;;;;;;5001304;28;20415;-71
2023/10/14 13:24:05;;;;;;;10.10;1.80;;;14.60;99.90;;;;;;4997377;28;20038;-71
2023/10/14 13:26:31;;;;;;;9.23;1.35;;;14.50;99.90;;;;;;4993719;28;20121;-72
2023/10/14 13:28:56;;;;;;;5.72;1.15;;;14.40;99.90;;;;;;5002514;28;20180;-71
2023/10/14 13:31:30;;;;;;;6.50;1.00;;;14.50;99.90;;;;;;4999504;28;20106;-72
2023/10/14 13:33:56;;;;;;;5.38;0.95;;;14.50;99.90;;;;;;5002692;28;20080;-72
2023/10/14 13:36:22;;;;;;;3.35;0.90;;;14.50;99.90;;;;;;5000330;28;20499;-72
2023/10/14 13:38:48;;;;;;;8.07;1.80;;;14.50;99.90;;;;;;4993431;28;20042;-71
2023/10/14 13:41:14;;;;;;;7.68;1.42;;;14.50;99.90;;;;;;4985406;28;20049;-71